sensor_id;sensor_type;location;lat;lon;timestamp;temperature;humidity
64705;DHT22;51131;52.298;13.686;2022-09-09T00:01:42;21.60;75.40
64705;DHT22;51131;52.298;13.686;2022-09-09T00:04:00;21.60;75.40
64705;DHT22;51131;52.298;13.686;2022-09-09T00:11:51;21.50;75.30
64705;DHT22;51131;52.298;13.686;2022-09-09T00:17:00;21.50;75.30
64705;DHT22;51131;52.298;13.686;2022-09-09T00:19:31;21.50;75.30
64705;DHT22;51131;52.298;13.686;2022-09-09T00:22:02;21.50;75.30
64705;DHT22;51131;52.298;13.686;2022-09-09T00:24:38;21.50;75.30
64705;DHT22;51131;52.298;13.686;2022-09-09T00:27:09;21.50;75.30
64705;DHT22;51131;52.298;13.686;2022-09-09T00:29:43;21.50;75.20
64705;DHT22;51131;52.298;13.686;2022-09-09T00:32:21;21.50;75.40
64705;DHT22;51131;52.298;13.686;2022-09-09T00:34:49;21.50;75.20
64705;DHT22;51131;52.298;13.686;2022-09-09T00:37:18;21.50;75.20
64705;DHT22;51131;52.298;13.686;2022-09-09T00:39:45;21.50;75.10
64705;DHT22;51131;52.298;13.686;2022-09-09T00:42:25;21.50;75.10
64705;DHT22;51131;52.298;13.686;2022-09-09T00:53:02;21.60;75.10
64705;DHT22;51131;52.298;13.686;2022-09-09T00:58:08;21.60;75.10
64705;DHT22;51131;52.298;13.686;2022-09-09T01:00:37;21.60;75.10
64705;DHT22;51131;52.298;13.686;2022-09-09T01:08:42;21.50;75.00
64705;DHT22;51131;52.298;13.686;2022-09-09T01:11:16;21.50;75.00
64705;DHT22;51131;52.298;13.686;2022-09-09T01:13:46;21.60;75.00
64705;DHT22;51131;52.298;13.686;2022-09-09T01:16:14;21.50;75.00
64705;DHT22;51131;52.298;13.686;2022-09-09T01:18:43;21.50;75.00
64705;DHT22;51131;52.298;13.686;2022-09-09T01:23:56;21.50;75.00
64705;DHT22;51131;52.298;13.686;2022-09-09T01:26:32;21.50;75.00
64705;DHT22;51131;52.298;13.686;2022-09-09T01:29:01;21.50;75.60
64705;DHT22;51131;52.298;13.686;2022-09-09T01:31:30;21.70;75.20
64705;DHT22;51131;52.298;13.686;2022-09-09T01:33:57;21.50;74.90
64705;DHT22;51131;52.298;13.686;2022-09-09T01:36:26;21.50;74.80
64705;DHT22;51131;52.298;13.686;2022-09-09T01:38:54;21.50;74.70
64705;DHT22;51131;52.298;13.686;2022-09-09T01:41:21;21.50;74.80
64705;DHT22;51131;52.298;13.686;2022-09-09T01:43:48;21.50;74.70
64705;DHT22;51131;52.298;13.686;2022-09-09T01:46:15;21.60;74.80
64705;DHT22;51131;52.298;13.686;2022-09-09T01:48:42;21.60;74.70
64705;DHT22;51131;52.298;13.686;2022-09-09T01:51:09;21.60;74.70
64705;DHT22;51131;52.298;13.686;2022-09-09T01:53:39;21.60;75.30
64705;DHT22;51131;52.298;13.686;2022-09-09T01:58:44;21.60;74.70
64705;DHT22;51131;52.298;13.686;2022-09-09T02:03:56;21.60;74.70
64705;DHT22;51131;52.298;13.686;2022-09-09T02:06:36;21.60;74.70
64705;DHT22;51131;52.298;13.686;2022-09-09T02:09:04;21.50;74.60
64705;DHT22;51131;52.298;13.686;2022-09-09T02:11:32;21.50;74.60
64705;DHT22;51131;52.298;13.686;2022-09-09T02:14:08;21.50;74.60
64705;DHT22;51131;52.298;13.686;2022-09-09T02:16:56;21.50;74.60
64705;DHT22;51131;52.298;13.686;2022-09-09T02:19:27;21.50;74.60
64705;DHT22;51131;52.298;13.686;2022-09-09T02:21:56;21.50;74.60
64705;DHT22;51131;52.298;13.686;2022-09-09T02:24:24;21.50;74.60
64705;DHT22;51131;52.298;13.686;2022-09-09T02:26:52;21.50;74.60
64705;DHT22;51131;52.298;13.686;2022-09-09T02:29:22;21.50;74.60
64705;DHT22;51131;52.298;13.686;2022-09-09T02:31:50;21.50;74.70
64705;DHT22;51131;52.298;13.686;2022-09-09T02:34:17;21.40;74.50
64705;DHT22;51131;52.298;13.686;2022-09-09T02:36:45;21.50;74.60
64705;DHT22;51131;52.298;13.686;2022-09-09T02:39:12;21.40;74.50
64705;DHT22;51131;52.298;13.686;2022-09-09T02:41:40;21.50;74.60
64705;DHT22;51131;52.298;13.686;2022-09-09T02:44:10;21.40;74.40
64705;DHT22;51131;52.298;13.686;2022-09-09T02:46:42;21.40;74.40
64705;DHT22;51131;52.298;13.686;2022-09-09T02:49:36;21.40;74.40
64705;DHT22;51131;52.298;13.686;2022-09-09T02:52:07;21.40;74.30
64705;DHT22;51131;52.298;13.686;2022-09-09T02:54:35;21.40;74.30
64705;DHT22;51131;52.298;13.686;2022-09-09T02:57:17;21.40;74.20
64705;DHT22;51131;52.298;13.686;2022-09-09T02:59:46;21.50;74.30
64705;DHT22;51131;52.298;13.686;2022-09-09T03:02:13;21.50;74.40
64705;DHT22;51131;52.298;13.686;2022-09-09T03:04:39;21.50;74.30
64705;DHT22;51131;52.298;13.686;2022-09-09T03:07:07;21.50;74.30
64705;DHT22;51131;52.298;13.686;2022-09-09T03:09:33;21.50;74.30
64705;DHT22;51131;52.298;13.686;2022-09-09T03:12:00;21.50;74.40
64705;DHT22;51131;52.298;13.686;2022-09-09T03:14:27;21.50;74.30
64705;DHT22;51131;52.298;13.686;2022-09-09T03:16:54;21.50;74.30
64705;DHT22;51131;52.298;13.686;2022-09-09T03:19:21;21.50;74.30
64705;DHT22;51131;52.298;13.686;2022-09-09T03:21:47;21.50;74.30
64705;DHT22;51131;52.298;13.686;2022-09-09T03:24:14;21.50;74.30
64705;DHT22;51131;52.298;13.686;2022-09-09T03:26:41;21.50;74.30
64705;DHT22;51131;52.298;13.686;2022-09-09T03:29:11;20.60;73.30
64705;DHT22;51131;52.298;13.686;2022-09-09T03:31:38;21.20;73.90
64705;DHT22;51131;52.298;13.686;2022-09-09T03:34:05;21.50;74.30
64705;DHT22;51131;52.298;13.686;2022-09-09T03:36:32;21.50;74.20
64705;DHT22;51131;52.298;13.686;2022-09-09T03:38:59;21.50;74.20
64705;DHT22;51131;52.298;13.686;2022-09-09T03:41:26;21.50;74.30
64705;DHT22;51131;52.298;13.686;2022-09-09T03:43:53;21.50;74.30
64705;DHT22;51131;52.298;13.686;2022-09-09T03:46:20;21.40;74.10
64705;DHT22;51131;52.298;13.686;2022-09-09T03:48:47;21.50;74.30
64705;DHT22;51131;52.298;13.686;2022-09-09T03:51:14;21.40;74.10
64705;DHT22;51131;52.298;13.686;2022-09-09T03:53:42;21.50;74.10
64705;DHT22;51131;52.298;13.686;2022-09-09T03:56:09;21.50;74.20
64705;DHT22;51131;52.298;13.686;2022-09-09T03:58:36;21.50;74.20
64705;DHT22;51131;52.298;13.686;2022-09-09T04:01:08;21.50;74.20
64705;DHT22;51131;52.298;13.686;2022-09-09T04:03:35;21.70;74.90
64705;DHT22;51131;52.298;13.686;2022-09-09T04:06:02;21.60;74.10
64705;DHT22;51131;52.298;13.686;2022-09-09T04:08:30;21.60;74.00
64705;DHT22;51131;52.298;13.686;2022-09-09T04:10:58;21.70;73.90
64705;DHT22;51131;52.298;13.686;2022-09-09T04:13:25;21.70;73.80
64705;DHT22;51131;52.298;13.686;2022-09-09T04:15:52;21.80;73.70
64705;DHT22;51131;52.298;13.686;2022-09-09T04:18:19;21.80;73.60
64705;DHT22;51131;52.298;13.686;2022-09-09T04:20:47;21.80;73.40
64705;DHT22;51131;52.298;13.686;2022-09-09T04:23:15;21.80;73.40
64705;DHT22;51131;52.298;13.686;2022-09-09T04:25:43;21.80;73.30
64705;DHT22;51131;52.298;13.686;2022-09-09T04:28:11;21.80;73.30
64705;DHT22;51131;52.298;13.686;2022-09-09T04:30:37;21.80;73.30
64705;DHT22;51131;52.298;13.686;2022-09-09T04:33:06;21.70;73.30
64705;DHT22;51131;52.298;13.686;2022-09-09T04:35:33;21.80;73.40
64705;DHT22;51131;52.298;13.686;2022-09-09T04:38:00;21.80;73.40
64705;DHT22;51131;52.298;13.686;2022-09-09T04:40:29;21.70;73.30
64705;DHT22;51131;52.298;13.686;2022-09-09T04:42:59;21.70;73.30
64705;DHT22;51131;52.298;13.686;2022-09-09T04:45:26;21.70;73.30
64705;DHT22;51131;52.298;13.686;2022-09-09T04:47:53;21.70;73.30
64705;DHT22;51131;52.298;13.686;2022-09-09T04:50:20;21.70;73.30
64705;DHT22;51131;52.298;13.686;2022-09-09T04:52:46;21.70;73.30
64705;DHT22;51131;52.298;13.686;2022-09-09T04:55:13;21.70;73.30
64705;DHT22;51131;52.298;13.686;2022-09-09T04:57:40;21.70;73.40
64705;DHT22;51131;52.298;13.686;2022-09-09T05:00:07;21.70;73.40
64705;DHT22;51131;52.298;13.686;2022-09-09T05:02:36;21.60;73.30
64705;DHT22;51131;52.298;13.686;2022-09-09T05:05:04;21.60;73.40
64705;DHT22;51131;52.298;13.686;2022-09-09T05:07:31;21.60;73.40
64705;DHT22;51131;52.298;13.686;2022-09-09T05:09:59;21.60;73.40
64705;DHT22;51131;52.298;13.686;2022-09-09T05:12:25;21.60;73.50
64705;DHT22;51131;52.298;13.686;2022-09-09T05:14:52;21.60;73.50
64705;DHT22;51131;52.298;13.686;2022-09-09T05:17:19;21.60;73.50
64705;DHT22;51131;52.298;13.686;2022-09-09T05:19:45;20.80;72.80
64705;DHT22;51131;52.298;13.686;2022-09-09T05:22:12;21.60;73.50
64705;DHT22;51131;52.298;13.686;2022-09-09T05:24:39;21.60;73.50
64705;DHT22;51131;52.298;13.686;2022-09-09T05:27:05;21.60;73.50
64705;DHT22;51131;52.298;13.686;2022-09-09T05:29:32;21.60;73.50
64705;DHT22;51131;52.298;13.686;2022-09-09T05:32:02;21.60;73.50
64705;DHT22;51131;52.298;13.686;2022-09-09T05:34:29;21.60;73.40
64705;DHT22;51131;52.298;13.686;2022-09-09T05:36:56;21.60;73.40
64705;DHT22;51131;52.298;13.686;2022-09-09T05:39:22;21.60;73.30
64705;DHT22;51131;52.298;13.686;2022-09-09T05:41:49;21.60;73.30
64705;DHT22;51131;52.298;13.686;2022-09-09T05:44:16;21.60;73.40
64705;DHT22;51131;52.298;13.686;2022-09-09T05:46:42;21.60;73.40
64705;DHT22;51131;52.298;13.686;2022-09-09T05:49:13;20.90;72.80
64705;DHT22;51131;52.298;13.686;2022-09-09T05:51:41;21.60;73.50
64705;DHT22;51131;52.298;13.686;2022-09-09T05:54:09;21.50;73.40
64705;DHT22;51131;52.298;13.686;2022-09-09T05:56:36;21.50;73.40
64705;DHT22;51131;52.298;13.686;2022-09-09T05:59:02;21.60;73.50
64705;DHT22;51131;52.298;13.686;2022-09-09T06:01:31;21.60;73.50
64705;DHT22;51131;52.298;13.686;2022-09-09T06:03:58;21.60;73.50
64705;DHT22;51131;52.298;13.686;2022-09-09T06:06:25;21.60;73.50
64705;DHT22;51131;52.298;13.686;2022-09-09T06:08:54;21.60;73.50
64705;DHT22;51131;52.298;13.686;2022-09-09T06:11:21;20.70;72.50
64705;DHT22;51131;52.298;13.686;2022-09-09T06:13:48;21.60;73.40
64705;DHT22;51131;52.298;13.686;2022-09-09T06:16:18;21.50;73.30
64705;DHT22;51131;52.298;13.686;2022-09-09T06:18:45;21.60;73.40
64705;DHT22;51131;52.298;13.686;2022-09-09T06:21:16;21.60;73.40
64705;DHT22;51131;52.298;13.686;2022-09-09T06:23:43;21.60;73.40
64705;DHT22;51131;52.298;13.686;2022-09-09T06:26:11;21.60;73.50
64705;DHT22;51131;52.298;13.686;2022-09-09T06:28:38;21.90;73.80
64705;DHT22;51131;52.298;13.686;2022-09-09T06:31:06;21.60;73.50
64705;DHT22;51131;52.298;13.686;2022-09-09T06:33:34;21.60;73.50
64705;DHT22;51131;52.298;13.686;2022-09-09T06:36:01;21.60;73.60
64705;DHT22;51131;52.298;13.686;2022-09-09T06:38:30;21.60;73.50
64705;DHT22;51131;52.298;13.686;2022-09-09T06:40:57;21.40;73.50
64705;DHT22;51131;52.298;13.686;2022-09-09T06:43:25;21.60;73.70
64705;DHT22;51131;52.298;13.686;2022-09-09T06:45:53;21.60;73.70
64705;DHT22;51131;52.298;13.686;2022-09-09T06:48:20;21.60;73.60
64705;DHT22;51131;52.298;13.686;2022-09-09T06:50:47;21.70;73.70
64705;DHT22;51131;52.298;13.686;2022-09-09T06:53:16;21.70;73.70
64705;DHT22;51131;52.298;13.686;2022-09-09T06:55:45;21.70;73.70
64705;DHT22;51131;52.298;13.686;2022-09-09T06:58:12;21.70;73.70
64705;DHT22;51131;52.298;13.686;2022-09-09T07:00:38;21.70;73.70
64705;DHT22;51131;52.298;13.686;2022-09-09T07:03:05;21.70;73.80
64705;DHT22;51131;52.298;13.686;2022-09-09T07:05:32;21.80;74.00
64705;DHT22;51131;52.298;13.686;2022-09-09T07:07:59;21.70;73.90
64705;DHT22;51131;52.298;13.686;2022-09-09T07:10:25;21.60;73.90
64705;DHT22;51131;52.298;13.686;2022-09-09T07:12:52;21.60;73.90
64705;DHT22;51131;52.298;13.686;2022-09-09T07:15:19;21.70;74.10
64705;DHT22;51131;52.298;13.686;2022-09-09T07:17:46;21.70;74.10
64705;DHT22;51131;52.298;13.686;2022-09-09T07:20:13;21.60;74.00
64705;DHT22;51131;52.298;13.686;2022-09-09T07:22:54;21.60;74.10
64705;DHT22;51131;52.298;13.686;2022-09-09T07:25:21;21.60;74.30
64705;DHT22;51131;52.298;13.686;2022-09-09T07:27:48;21.60;74.20
64705;DHT22;51131;52.298;13.686;2022-09-09T07:30:15;21.70;74.40
64705;DHT22;51131;52.298;13.686;2022-09-09T07:32:51;21.70;74.40
64705;DHT22;51131;52.298;13.686;2022-09-09T07:35:18;21.70;74.40
64705;DHT22;51131;52.298;13.686;2022-09-09T07:37:44;21.70;74.40
64705;DHT22;51131;52.298;13.686;2022-09-09T07:40:16;21.70;74.30
64705;DHT22;51131;52.298;13.686;2022-09-09T07:42:43;21.70;74.50
64705;DHT22;51131;52.298;13.686;2022-09-09T07:45:09;21.70;74.50
64705;DHT22;51131;52.298;13.686;2022-09-09T07:47:36;21.70;74.50
64705;DHT22;51131;52.298;13.686;2022-09-09T07:50:03;21.70;74.50
64705;DHT22;51131;52.298;13.686;2022-09-09T07:52:30;21.80;74.60
64705;DHT22;51131;52.298;13.686;2022-09-09T07:54:57;21.70;74.50
64705;DHT22;51131;52.298;13.686;2022-09-09T07:57:27;21.70;74.50
64705;DHT22;51131;52.298;13.686;2022-09-09T07:59:54;21.70;74.60
64705;DHT22;51131;52.298;13.686;2022-09-09T08:02:23;21.80;74.80
64705;DHT22;51131;52.298;13.686;2022-09-09T08:04:50;21.70;74.80
64705;DHT22;51131;52.298;13.686;2022-09-09T08:07:18;21.70;74.80
64705;DHT22;51131;52.298;13.686;2022-09-09T08:09:45;21.70;74.90
64705;DHT22;51131;52.298;13.686;2022-09-09T08:12:11;21.70;75.00
64705;DHT22;51131;52.298;13.686;2022-09-09T08:14:39;21.70;75.20
64705;DHT22;51131;52.298;13.686;2022-09-09T08:17:06;21.70;75.20
64705;DHT22;51131;52.298;13.686;2022-09-09T08:19:33;21.70;75.10
64705;DHT22;51131;52.298;13.686;2022-09-09T08:22:02;21.70;75.20
64705;DHT22;51131;52.298;13.686;2022-09-09T08:24:29;21.70;75.30
64705;DHT22;51131;52.298;13.686;2022-09-09T08:26:55;21.20;74.70
64705;DHT22;51131;52.298;13.686;2022-09-09T08:29:23;21.70;75.30
64705;DHT22;51131;52.298;13.686;2022-09-09T08:31:51;21.70;75.20
64705;DHT22;51131;52.298;13.686;2022-09-09T08:34:19;21.70;75.30
64705;DHT22;51131;52.298;13.686;2022-09-09T08:36:46;21.80;75.30
64705;DHT22;51131;52.298;13.686;2022-09-09T08:39:15;21.70;75.20
64705;DHT22;51131;52.298;13.686;2022-09-09T08:41:50;21.80;75.20
64705;DHT22;51131;52.298;13.686;2022-09-09T08:44:31;21.80;75.30
64705;DHT22;51131;52.298;13.686;2022-09-09T08:49:51;21.80;75.30
64705;DHT22;51131;52.298;13.686;2022-09-09T08:52:30;21.80;75.30
64705;DHT22;51131;52.298;13.686;2022-09-09T08:55:09;21.80;75.30
64705;DHT22;51131;52.298;13.686;2022-09-09T08:57:36;21.80;75.30
64705;DHT22;51131;52.298;13.686;2022-09-09T09:00:07;21.80;75.30
64705;DHT22;51131;52.298;13.686;2022-09-09T09:02:42;21.80;75.30
64705;DHT22;51131;52.298;13.686;2022-09-09T09:05:16;21.80;75.40
64705;DHT22;51131;52.298;13.686;2022-09-09T09:13:11;21.70;75.30
64705;DHT22;51131;52.298;13.686;2022-09-09T09:15:39;21.80;75.50
64705;DHT22;51131;52.298;13.686;2022-09-09T09:18:08;21.80;75.50
64705;DHT22;51131;52.298;13.686;2022-09-09T09:23:46;21.70;75.40
64705;DHT22;51131;52.298;13.686;2022-09-09T09:26:15;21.70;75.50
64705;DHT22;51131;52.298;13.686;2022-09-09T09:28:42;21.70;75.50
64705;DHT22;51131;52.298;13.686;2022-09-09T09:31:09;21.70;75.60
64705;DHT22;51131;52.298;13.686;2022-09-09T09:36:10;21.80;75.60
64705;DHT22;51131;52.298;13.686;2022-09-09T09:38:39;21.80;76.20
64705;DHT22;51131;52.298;13.686;2022-09-09T09:41:30;21.80;75.60
64705;DHT22;51131;52.298;13.686;2022-09-09T09:43:57;21.80;75.50
64705;DHT22;51131;52.298;13.686;2022-09-09T09:46:24;21.80;75.50
64705;DHT22;51131;52.298;13.686;2022-09-09T09:48:59;21.80;75.50
64705;DHT22;51131;52.298;13.686;2022-09-09T09:51:26;21.80;75.50
64705;DHT22;51131;52.298;13.686;2022-09-09T09:53:54;21.80;75.50
64705;DHT22;51131;52.298;13.686;2022-09-09T09:56:32;21.80;75.40
64705;DHT22;51131;52.298;13.686;2022-09-09T09:58:59;21.80;75.60
64705;DHT22;51131;52.298;13.686;2022-09-09T10:01:34;21.80;75.60
64705;DHT22;51131;52.298;13.686;2022-09-09T10:04:12;21.80;75.50
64705;DHT22;51131;52.298;13.686;2022-09-09T10:06:42;21.80;75.60
64705;DHT22;51131;52.298;13.686;2022-09-09T10:14:20;21.80;75.60
64705;DHT22;51131;52.298;13.686;2022-09-09T10:19:27;21.80;75.50
64705;DHT22;51131;52.298;13.686;2022-09-09T10:29:58;21.80;75.50
64705;DHT22;51131;52.298;13.686;2022-09-09T10:32:45;21.80;75.50
64705;DHT22;51131;52.298;13.686;2022-09-09T10:35:27;21.80;75.50
64705;DHT22;51131;52.298;13.686;2022-09-09T10:40:38;21.80;75.40
64705;DHT22;51131;52.298;13.686;2022-09-09T10:46:00;21.80;75.50
64705;DHT22;51131;52.298;13.686;2022-09-09T10:48:31;21.70;75.30
64705;DHT22;51131;52.298;13.686;2022-09-09T10:56:17;21.80;75.50
64705;DHT22;51131;52.298;13.686;2022-09-09T10:58:48;21.80;75.60
64705;DHT22;51131;52.298;13.686;2022-09-09T11:01:17;21.70;75.40
64705;DHT22;51131;52.298;13.686;2022-09-09T11:03:46;21.80;75.50
64705;DHT22;51131;52.298;13.686;2022-09-09T11:06:17;21.70;75.40
64705;DHT22;51131;52.298;13.686;2022-09-09T11:08:45;21.70;75.50
64705;DHT22;51131;52.298;13.686;2022-09-09T11:11:17;21.80;75.60
64705;DHT22;51131;52.298;13.686;2022-09-09T11:18:45;21.70;75.50
64705;DHT22;51131;52.298;13.686;2022-09-09T11:21:21;21.70;75.50
64705;DHT22;51131;52.298;13.686;2022-09-09T11:23:50;21.70;75.50
64705;DHT22;51131;52.298;13.686;2022-09-09T11:26:21;21.70;75.60
64705;DHT22;51131;52.298;13.686;2022-09-09T11:42:07;21.70;75.70
64705;DHT22;51131;52.298;13.686;2022-09-09T11:44:34;21.70;75.70
64705;DHT22;51131;52.298;13.686;2022-09-09T11:47:00;21.70;75.80
64705;DHT22;51131;52.298;13.686;2022-09-09T11:49:28;21.70;75.80
64705;DHT22;51131;52.298;13.686;2022-09-09T11:51:56;21.70;75.80
64705;DHT22;51131;52.298;13.686;2022-09-09T11:54:30;21.70;75.70
64705;DHT22;51131;52.298;13.686;2022-09-09T11:56:57;21.70;75.80
64705;DHT22;51131;52.298;13.686;2022-09-09T11:59:28;21.70;75.80
64705;DHT22;51131;52.298;13.686;2022-09-09T12:01:57;21.70;75.80
64705;DHT22;51131;52.298;13.686;2022-09-09T12:07:05;21.70;75.80
64705;DHT22;51131;52.298;13.686;2022-09-09T12:09:52;21.70;75.80
64705;DHT22;51131;52.298;13.686;2022-09-09T12:12:24;21.70;76.00
64705;DHT22;51131;52.298;13.686;2022-09-09T12:17:23;21.70;76.00
64705;DHT22;51131;52.298;13.686;2022-09-09T12:25:21;21.60;75.80
64705;DHT22;51131;52.298;13.686;2022-09-09T12:27:55;21.60;75.90
64705;DHT22;51131;52.298;13.686;2022-09-09T12:30:23;21.70;76.20
64705;DHT22;51131;52.298;13.686;2022-09-09T12:33:00;21.60;75.90
64705;DHT22;51131;52.298;13.686;2022-09-09T12:35:27;21.60;76.00
64705;DHT22;51131;52.298;13.686;2022-09-09T12:37:56;21.70;76.00
64705;DHT22;51131;52.298;13.686;2022-09-09T12:40:25;21.60;75.90
64705;DHT22;51131;52.298;13.686;2022-09-09T12:42:52;21.60;76.20
64705;DHT22;51131;52.298;13.686;2022-09-09T12:45:20;21.60;76.00
64705;DHT22;51131;52.298;13.686;2022-09-09T12:50:38;21.60;75.80
64705;DHT22;51131;52.298;13.686;2022-09-09T12:53:07;21.60;75.80
64705;DHT22;51131;52.298;13.686;2022-09-09T12:55:36;21.60;75.80
64705;DHT22;51131;52.298;13.686;2022-09-09T12:58:04;21.60;75.90
64705;DHT22;51131;52.298;13.686;2022-09-09T13:00:35;21.60;75.90
64705;DHT22;51131;52.298;13.686;2022-09-09T13:03:13;21.60;75.90
64705;DHT22;51131;52.298;13.686;2022-09-09T13:05:41;21.60;75.90
64705;DHT22;51131;52.298;13.686;2022-09-09T13:08:11;21.60;75.90
64705;DHT22;51131;52.298;13.686;2022-09-09T13:10:39;21.60;76.00
64705;DHT22;51131;52.298;13.686;2022-09-09T13:13:28;21.60;75.80
64705;DHT22;51131;52.298;13.686;2022-09-09T13:15:57;21.60;75.80
64705;DHT22;51131;52.298;13.686;2022-09-09T13:18:28;21.60;75.80
64705;DHT22;51131;52.298;13.686;2022-09-09T13:20:55;21.60;76.00
64705;DHT22;51131;52.298;13.686;2022-09-09T13:23:26;21.60;75.90
64705;DHT22;51131;52.298;13.686;2022-09-09T13:26:00;21.60;75.90
64705;DHT22;51131;52.298;13.686;2022-09-09T13:28:28;21.60;75.90
64705;DHT22;51131;52.298;13.686;2022-09-09T13:31:03;21.70;76.00
64705;DHT22;51131;52.298;13.686;2022-09-09T13:33:32;21.50;75.80
64705;DHT22;51131;52.298;13.686;2022-09-09T13:36:01;21.60;75.90
64705;DHT22;51131;52.298;13.686;2022-09-09T13:38:30;21.50;75.70
64705;DHT22;51131;52.298;13.686;2022-09-09T13:40:59;21.60;76.00
64705;DHT22;51131;52.298;13.686;2022-09-09T13:43:31;21.50;75.80
64705;DHT22;51131;52.298;13.686;2022-09-09T13:46:23;21.60;76.20
64705;DHT22;51131;52.298;13.686;2022-09-09T13:48:53;21.60;76.40
64705;DHT22;51131;52.298;13.686;2022-09-09T13:51:28;21.60;75.80
64705;DHT22;51131;52.298;13.686;2022-09-09T13:53:56;21.60;75.80
64705;DHT22;51131;52.298;13.686;2022-09-09T13:56:23;21.60;75.80
64705;DHT22;51131;52.298;13.686;2022-09-09T13:58:49;21.60;75.80
64705;DHT22;51131;52.298;13.686;2022-09-09T14:01:16;21.70;75.90
64705;DHT22;51131;52.298;13.686;2022-09-09T14:03:43;21.70;75.90
64705;DHT22;51131;52.298;13.686;2022-09-09T14:06:10;21.70;75.80
64705;DHT22;51131;52.298;13.686;2022-09-09T14:08:37;21.70;75.80
64705;DHT22;51131;52.298;13.686;2022-09-09T14:11:05;21.70;75.70
64705;DHT22;51131;52.298;13.686;2022-09-09T14:13:32;21.70;75.80
64705;DHT22;51131;52.298;13.686;2022-09-09T14:15:58;21.70;76.00
64705;DHT22;51131;52.298;13.686;2022-09-09T14:18:25;21.70;75.90
64705;DHT22;51131;52.298;13.686;2022-09-09T14:20:52;21.70;75.40
64705;DHT22;51131;52.298;13.686;2022-09-09T14:23:18;21.70;75.60
64705;DHT22;51131;52.298;13.686;2022-09-09T14:25:45;21.70;75.60
64705;DHT22;51131;52.298;13.686;2022-09-09T14:28:13;21.80;75.60
64705;DHT22;51131;52.298;13.686;2022-09-09T14:30:40;21.80;75.70
64705;DHT22;51131;52.298;13.686;2022-09-09T14:33:08;21.70;75.70
64705;DHT22;51131;52.298;13.686;2022-09-09T14:35:35;21.70;75.60
64705;DHT22;51131;52.298;13.686;2022-09-09T14:38:03;21.80;75.80
64705;DHT22;51131;52.298;13.686;2022-09-09T14:40:30;21.70;75.60
64705;DHT22;51131;52.298;13.686;2022-09-09T14:42:57;21.70;75.70
64705;DHT22;51131;52.298;13.686;2022-09-09T14:45:23;21.70;75.70
64705;DHT22;51131;52.298;13.686;2022-09-09T14:47:51;21.70;75.70
64705;DHT22;51131;52.298;13.686;2022-09-09T14:50:18;21.70;75.70
64705;DHT22;51131;52.298;13.686;2022-09-09T14:52:46;21.80;75.90
64705;DHT22;51131;52.298;13.686;2022-09-09T14:55:14;21.70;75.80
64705;DHT22;51131;52.298;13.686;2022-09-09T14:57:41;21.70;76.00
64705;DHT22;51131;52.298;13.686;2022-09-09T15:00:09;21.70;76.10
64705;DHT22;51131;52.298;13.686;2022-09-09T15:02:36;21.70;76.40
64705;DHT22;51131;52.298;13.686;2022-09-09T15:05:03;21.70;76.30
64705;DHT22;51131;52.298;13.686;2022-09-09T15:07:30;21.70;76.40
64705;DHT22;51131;52.298;13.686;2022-09-09T15:09:58;22.10;76.90
64705;DHT22;51131;52.298;13.686;2022-09-09T15:12:25;21.70;76.60
64705;DHT22;51131;52.298;13.686;2022-09-09T15:14:51;21.70;76.80
64705;DHT22;51131;52.298;13.686;2022-09-09T15:17:20;21.70;76.70
64705;DHT22;51131;52.298;13.686;2022-09-09T15:19:47;21.60;76.40
64705;DHT22;51131;52.298;13.686;2022-09-09T15:22:13;21.60;76.40
64705;DHT22;51131;52.298;13.686;2022-09-09T15:24:40;21.70;76.50
64705;DHT22;51131;52.298;13.686;2022-09-09T15:27:07;21.60;76.20
64705;DHT22;51131;52.298;13.686;2022-09-09T15:29:33;21.60;76.20
64705;DHT22;51131;52.298;13.686;2022-09-09T15:32:00;21.60;76.20
64705;DHT22;51131;52.298;13.686;2022-09-09T15:34:27;21.70;76.40
64705;DHT22;51131;52.298;13.686;2022-09-09T15:36:53;21.60;76.20
64705;DHT22;51131;52.298;13.686;2022-09-09T15:39:21;21.60;76.20
64705;DHT22;51131;52.298;13.686;2022-09-09T15:41:49;21.70;76.40
64705;DHT22;51131;52.298;13.686;2022-09-09T15:44:15;21.70;76.50
64705;DHT22;51131;52.298;13.686;2022-09-09T15:46:46;21.70;76.40
64705;DHT22;51131;52.298;13.686;2022-09-09T15:49:18;21.60;76.40
64705;DHT22;51131;52.298;13.686;2022-09-09T15:51:46;21.60;76.30
64705;DHT22;51131;52.298;13.686;2022-09-09T15:54:16;22.70;77.40
64705;DHT22;51131;52.298;13.686;2022-09-09T15:56:45;21.60;76.30
64705;DHT22;51131;52.298;13.686;2022-09-09T15:59:13;21.60;76.30
64705;DHT22;51131;52.298;13.686;2022-09-09T16:01:41;21.60;76.20
64705;DHT22;51131;52.298;13.686;2022-09-09T16:04:09;21.60;76.30
64705;DHT22;51131;52.298;13.686;2022-09-09T16:06:36;21.60;76.20
64705;DHT22;51131;52.298;13.686;2022-09-09T16:09:03;21.60;76.20
64705;DHT22;51131;52.298;13.686;2022-09-09T16:11:32;21.60;76.10
64705;DHT22;51131;52.298;13.686;2022-09-09T16:13:59;21.60;76.10
64705;DHT22;51131;52.298;13.686;2022-09-09T16:16:27;21.60;76.10
64705;DHT22;51131;52.298;13.686;2022-09-09T16:18:55;21.60;76.10
64705;DHT22;51131;52.298;13.686;2022-09-09T16:21:23;21.60;76.00
64705;DHT22;51131;52.298;13.686;2022-09-09T16:23:51;21.60;75.90
64705;DHT22;51131;52.298;13.686;2022-09-09T16:26:18;21.60;76.20
64705;DHT22;51131;52.298;13.686;2022-09-09T16:28:45;21.60;76.00
64705;DHT22;51131;52.298;13.686;2022-09-09T16:31:13;21.60;76.00
64705;DHT22;51131;52.298;13.686;2022-09-09T16:33:40;21.60;76.10
64705;DHT22;51131;52.298;13.686;2022-09-09T16:36:09;21.60;76.10
64705;DHT22;51131;52.298;13.686;2022-09-09T16:38:36;21.60;76.00
64705;DHT22;51131;52.298;13.686;2022-09-09T16:41:03;21.50;76.00
64705;DHT22;51131;52.298;13.686;2022-09-09T16:43:35;21.60;76.00
64705;DHT22;51131;52.298;13.686;2022-09-09T16:46:18;21.60;76.00
64705;DHT22;51131;52.298;13.686;2022-09-09T16:48:45;21.50;75.90
64705;DHT22;51131;52.298;13.686;2022-09-09T16:51:16;21.50;76.00
64705;DHT22;51131;52.298;13.686;2022-09-09T16:53:43;21.60;76.00
64705;DHT22;51131;52.298;13.686;2022-09-09T16:56:10;21.60;76.00
64705;DHT22;51131;52.298;13.686;2022-09-09T16:58:37;21.50;75.90
64705;DHT22;51131;52.298;13.686;2022-09-09T17:01:04;21.60;76.00
64705;DHT22;51131;52.298;13.686;2022-09-09T17:03:31;21.50;76.00
64705;DHT22;51131;52.298;13.686;2022-09-09T17:05:59;21.50;75.90
64705;DHT22;51131;52.298;13.686;2022-09-09T17:08:29;21.50;75.90
64705;DHT22;51131;52.298;13.686;2022-09-09T17:10:56;21.90;76.30